Time;durP1;ratioP1;P1;durP2;ratioP2;P2;SDS_P1;SDS_P2;PMS_P1;PMS_P2;Temp;Humidity;BMP_temperature;BMP_pressure;BME280_temperature;BME280_humidity;BME280_pressure;Samples;Min_cycle;Max_cycle;Signal;HPM_P1;HPM_P2
2022/08/14 00:01:34;;;;;;;13.10;12.43;;;;;;;20.55;100.00;101031.98;1944188;72;24201;-72
2022/08/14 00:04:05;;;;;;;13.87;13.03;;;;;;;20.79;100.00;101023.60;1944309;74;24125;-72
2022/08/14 00:06:35;;;;;;;14.37;13.33;;;;;;;20.71;100.00;101023.12;1944282;74;26644;-72
2022/08/14 00:09:05;;;;;;;14.13;13.30;;;;;;;20.72;100.00;101022.75;1982984;72;24184;-72
2022/08/14 00:11:36;;;;;;;13.93;13.13;;;;;;;20.73;100.00;101006.64;1944379;74;24630;-72
2022/08/14 00:14:06;;;;;;;13.83;13.00;;;;;;;20.70;100.00;101011.00;1944191;74;24116;-72
2022/08/14 00:16:37;;;;;;;13.97;13.17;;;;;;;20.71;100.00;101002.74;1944295;74;26376;-73
2022/08/14 00:19:07;;;;;;;14.13;13.27;;;;;;;20.71;100.00;101004.77;1982954;72;26630;-72
2022/08/14 00:21:38;;;;;;;12.97;12.30;;;;;;;20.68;100.00;101000.63;1944082;74;26730;-72
2022/08/14 00:24:08;;;;;;;13.43;12.73;;;;;;;20.73;100.00;100995.34;1944106;74;24137;-72
2022/08/14 00:26:39;;;;;;;13.07;12.27;;;;;;;20.89;100.00;100994.31;1983004;72;24111;-72
2022/08/14 00:29:09;;;;;;;13.37;12.50;;;;;;;20.75;100.00;100993.80;1944132;74;24649;-72
2022/08/14 00:31:39;;;;;;;13.67;12.80;;;;;;;20.72;100.00;100989.45;1982941;72;24632;-72
2022/08/14 00:34:10;;;;;;;13.50;12.70;;;;;;;20.70;100.00;100986.17;1944247;74;24190;-72
2022/08/14 00:36:40;;;;;;;13.07;12.27;;;;;;;20.79;100.00;100992.55;1983053;72;24111;-72
2022/08/14 00:39:15;;;;;;;13.90;13.00;;;;;;;20.89;100.00;100992.07;1944119;74;24202;-72
2022/08/14 00:45:00;;;;;;;13.50;12.70;;;;;;;20.92;100.00;100979.27;2013598;71;30819;-73
2022/08/14 00:50:29;;;;;;;13.53;12.73;;;;;;;20.71;100.00;100984.39;2060110;69;26386;-75
2022/08/14 00:53:01;;;;;;;13.50;12.60;;;;;;;20.71;100.00;100985.00;1981774;72;24098;-74
2022/08/14 00:55:32;;;;;;;13.87;13.07;;;;;;;20.39;100.00;100987.51;1981625;72;24148;-72
2022/08/14 01:00:51;;;;;;;14.70;13.90;;;;;;;20.30;100.00;100984.53;1981784;72;24121;-73
2022/08/14 01:03:22;;;;;;;16.23;15.43;;;;;;;20.20;100.00;100978.70;1981713;72;24210;-73
2022/08/14 01:05:53;;;;;;;17.40;16.40;;;;;;;19.90;100.00;100977.98;1981644;72;24113;-73
2022/08/14 01:08:26;;;;;;;19.27;18.10;;;;;;;19.90;100.00;100982.20;1981861;72;24114;-72
2022/08/14 01:10:57;;;;;;;19.07;18.10;;;;;;;19.67;100.00;100987.14;1981844;72;24109;-72
2022/08/14 01:13:31;;;;;;;20.30;19.30;;;;;;;19.62;100.00;100979.71;1981703;72;24110;-73
2022/08/14 01:16:04;;;;;;;22.03;20.93;;;;;;;19.46;100.00;100978.67;1981653;72;26628;-73
2022/08/14 01:21:25;;;;;;;25.70;24.30;;;;;;;19.31;100.00;100975.83;1981961;72;24255;-73
2022/08/14 01:23:55;;;;;;;27.37;25.90;;;;;;;19.26;100.00;100980.25;1981754;72;24093;-74
2022/08/14 01:26:27;;;;;;;27.07;25.67;;;;;;;19.17;100.00;100968.20;1981902;72;24101;-74
2022/08/14 01:28:59;;;;;;;26.80;25.27;;;;;;;19.22;100.00;100972.23;1981796;72;24584;-73
2022/08/14 01:31:32;;;;;;;26.67;25.07;;;;;;;19.17;100.00;100968.81;1981704;72;24552;-73
2022/08/14 01:34:04;;;;;;;26.30;24.90;;;;;;;19.40;100.00;100956.88;1981889;72;24113;-73
2022/08/14 01:36:36;;;;;;;27.23;25.83;;;;;;;19.38;100.00;100954.98;1981740;72;24109;-73
2022/08/14 01:39:10;;;;;;;27.03;25.43;;;;;;;19.31;100.00;100953.88;1981782;72;24186;-73
2022/08/14 01:41:41;;;;;;;26.37;25.03;;;;;;;19.21;100.00;100950.86;1981736;72;24113;-73
2022/08/14 01:44:15;;;;;;;25.50;24.10;;;;;;;19.30;100.00;100947.98;1981824;72;24623;-73
2022/08/14 01:46:46;;;;;;;24.97;23.67;;;;;;;19.26;100.00;100949.84;1981428;72;24128;-74
2022/08/14 01:49:27;;;;;;;26.07;24.67;;;;;;;19.33;100.00;100945.34;1953818;72;24206;-80
2022/08/14 01:51:57;;;;;;;27.83;25.83;;;;;;;19.38;100.00;100948.55;1911255;75;24223;-73
2022/08/14 01:54:27;;;;;;;26.70;25.20;;;;;;;19.43;100.00;100938.48;1894411;76;24625;-73
2022/08/14 01:56:58;;;;;;;26.70;25.17;;;;;;;19.31;100.00;100937.80;1946572;73;24199;-73
2022/08/14 01:59:31;;;;;;;28.10;26.27;;;;;;;19.30;100.00;100937.55;1946593;73;24573;-73
2022/08/14 02:02:08;;;;;;;26.23;24.83;;;;;;;19.19;100.00;100934.08;1945931;73;26655;-73
2022/08/14 02:04:37;;;;;;;27.53;26.10;;;;;;;19.34;100.00;100927.25;1945254;74;24627;-73
2022/08/14 02:07:08;;;;;;;29.70;27.93;;;;;;;19.26;100.00;100918.86;1946030;73;24146;-74
2022/08/14 02:09:40;;;;;;;32.53;30.83;;;;;;;18.82;100.00;100923.12;1945919;73;26763;-73
2022/08/14 02:12:11;;;;;;;31.43;29.83;;;;;;;18.59;100.00;100919.74;1946029;73;24110;-73
2022/08/14 02:14:41;;;;;;;33.17;31.37;;;;;;;18.64;100.00;100915.34;1945996;73;24139;-73
2022/08/14 02:17:12;;;;;;;34.77;32.57;;;;;;;18.43;100.00;100915.80;1946055;73;24609;-73
2022/08/14 02:19:42;;;;;;;32.77;30.87;;;;;;;18.41;100.00;100913.32;1945699;74;24217;-74
2022/08/14 02:22:12;;;;;;;34.30;32.20;;;;;;;18.50;100.00;100904.84;1945766;73;24165;-73
2022/08/14 02:24:42;;;;;;;34.30;32.20;;;;;;;18.23;100.00;100903.28;1945653;73;24201;-73
2022/08/14 02:27:13;;;;;;;31.27;29.57;;;;;;;18.35;100.00;100898.39;1945691;73;24263;-73
2022/08/14 02:29:43;;;;;;;31.67;29.87;;;;;;;18.64;100.00;100895.64;1945635;74;24180;-73
2022/08/14 02:32:15;;;;;;;32.27;30.27;;;;;;;18.41;100.00;100895.62;1945647;73;26687;-73
2022/08/14 02:34:46;;;;;;;31.70;29.80;;;;;;;18.51;100.00;100893.27;1945641;74;24129;-73
2022/08/14 02:37:16;;;;;;;30.83;29.03;;;;;;;18.41;100.00;100902.65;1945748;73;24151;-73
2022/08/14 02:39:49;;;;;;;30.13;28.37;;;;;;;18.48;100.00;100893.12;1945713;74;24142;-72
2022/08/14 02:42:21;;;;;;;27.57;26.13;;;;;;;18.58;100.00;100894.17;1945625;74;26764;-73
2022/08/14 02:44:51;;;;;;;28.63;26.97;;;;;;;18.58;100.00;100895.00;1945645;74;24228;-73
2022/08/14 02:47:21;;;;;;;27.13;25.53;;;;;;;18.64;100.00;100890.02;1945739;73;24187;-73
2022/08/14 02:49:53;;;;;;;26.37;24.87;;;;;;;18.65;100.00;100884.03;1945656;73;24662;-73
2022/08/14 02:52:26;;;;;;;26.40;25.00;;;;;;;18.59;100.00;100886.81;1945719;73;24608;-73
2022/08/14 02:54:56;;;;;;;26.77;25.33;;;;;;;18.55;100.00;100889.23;1945434;73;26208;-72
2022/08/14 02:57:28;;;;;;;26.70;25.33;;;;;;;18.48;100.00;100891.11;1945700;74;24157;-73
2022/08/14 03:00:00;;;;;;;26.23;24.83;;;;;;;18.58;100.00;100892.19;1945561;74;24206;-73
2022/08/14 03:02:32;;;;;;;25.37;23.97;;;;;;;18.56;100.00;100884.68;1945528;73;24121;-73
2022/08/14 03:05:02;;;;;;;25.13;23.60;;;;;;;18.57;100.00;100888.30;1945604;74;24205;-73
2022/08/14 03:10:31;;;;;;;23.57;22.37;;;;;;;19.00;100.00;100882.42;2022173;71;25941;-74
2022/08/14 03:13:03;;;;;;;24.57;23.23;;;;;;;18.84;100.00;100886.42;1946328;74;24123;-74
2022/08/14 03:18:52;;;;;;;32.23;30.53;;;;;;;18.55;100.00;100883.02;2018230;70;32991;-72
2022/08/14 03:24:21;;;;;;;33.10;31.30;;;;;;;18.56;100.00;100886.67;2059880;69;25919;-72
2022/08/14 03:26:55;;;;;;;31.93;30.43;;;;;;;18.61;100.00;100890.09;1981626;72;24109;-72
2022/08/14 03:29:23;;;;;;;33.67;31.87;;;;;;;18.55;100.00;100894.86;1980891;72;24669;-73
2022/08/14 03:31:58;;;;;;;33.83;32.13;;;;;;;18.62;100.00;100890.92;1981361;72;24637;-73
2022/08/14 03:34:28;;;;;;;33.80;32.00;;;;;;;18.56;100.00;100895.94;1981471;72;24097;-73
2022/08/14 03:36:58;;;;;;;32.67;30.80;;;;;;;18.39;100.00;100886.70;1981448;72;24568;-73
2022/08/14 03:39:29;;;;;;;32.90;31.03;;;;;;;18.46;100.00;100887.83;1981481;72;24158;-72
2022/08/14 03:41:59;;;;;;;34.67;32.80;;;;;;;18.49;100.00;100886.31;1946402;74;24183;-73
2022/08/14 03:44:31;;;;;;;34.93;33.23;;;;;;;18.43;100.00;100883.46;1946448;73;24186;-73
2022/08/14 03:47:02;;;;;;;35.27;33.47;;;;;;;18.59;100.00;100878.95;1946473;74;24120;-72
2022/08/14 03:49:32;;;;;;;36.63;34.73;;;;;;;18.33;100.00;100880.43;1944769;74;24150;-71
2022/08/14 03:52:04;;;;;;;36.17;34.37;;;;;;;18.32;100.00;100883.56;1944797;73;24187;-71
2022/08/14 03:54:34;;;;;;;35.50;33.60;;;;;;;18.34;100.00;100884.07;1944785;73;26734;-72
2022/08/14 03:57:05;;;;;;;35.53;33.73;;;;;;;18.33;100.00;100884.65;1944869;74;24206;-71
2022/08/14 03:59:36;;;;;;;36.20;34.27;;;;;;;18.29;100.00;100882.84;1944825;73;24194;-71
2022/08/14 04:05:06;;;;;;;38.10;36.00;;;;;;;18.38;100.00;100876.03;2059664;69;26019;-70
2022/08/14 04:07:37;;;;;;;39.67;37.60;;;;;;;18.28;100.00;100875.56;1981480;72;24097;-70
2022/08/14 04:10:10;;;;;;;39.73;37.57;;;;;;;18.09;100.00;100875.97;1981420;72;24648;-70
2022/08/14 04:12:41;;;;;;;39.93;37.83;;;;;;;18.13;100.00;100871.33;1981386;72;24094;-71
2022/08/14 04:15:13;;;;;;;38.67;36.67;;;;;;;18.29;100.00;100871.02;1981560;72;24170;-71
2022/08/14 04:17:44;;;;;;;39.53;37.37;;;;;;;18.56;100.00;100864.16;1981711;72;24082;-70
2022/08/14 04:20:15;;;;;;;41.23;38.93;;;;;;;18.43;100.00;100856.16;1981816;72;24113;-70
2022/08/14 04:22:45;;;;;;;42.83;40.43;;;;;;;18.36;100.00;100847.98;1981721;72;24106;-71
2022/08/14 04:25:16;;;;;;;42.07;39.83;;;;;;;18.19;100.00;100844.09;1981659;72;24179;-70
2022/08/14 04:27:46;;;;;;;43.03;40.57;;;;;;;18.17;100.00;100840.80;1981659;72;24549;-70
2022/08/14 04:30:16;;;;;;;41.57;39.13;;;;;;;18.09;100.00;100831.83;1981724;72;24105;-70
2022/08/14 04:32:46;;;;;;;41.37;39.03;;;;;;;18.15;100.00;100826.24;1981584;72;26196;-70
2022/08/14 04:35:17;;;;;;;44.13;41.63;;;;;;;18.13;100.00;100833.37;1981658;72;26689;-70
2022/08/14 04:43:35;;;;;;;53.30;50.20;;;;;;;17.97;100.00;100816.83;1981826;72;24133;-72
2022/08/14 04:46:07;;;;;;;53.03;50.13;;;;;;;17.72;100.00;100819.92;1981770;72;24101;-71
2022/08/14 04:48:38;;;;;;;51.00;48.10;;;;;;;17.84;100.00;100829.09;1963558;72;26700;-72
2022/08/14 04:51:10;;;;;;;50.73;47.73;;;;;;;17.87;100.00;100827.01;1911140;75;24678;-72
2022/08/14 04:53:44;;;;;;;51.10;48.20;;;;;;;17.89;100.00;100835.91;1894493;76;26176;-71
2022/08/14 04:56:21;;;;;;;52.60;49.60;;;;;;;18.03;100.00;100831.75;1898262;75;24186;-72
2022/08/14 04:58:50;;;;;;;54.23;51.10;;;;;;;18.14;100.00;100833.02;1869150;77;24138;-72
2022/08/14 05:01:20;;;;;;;56.03;52.73;;;;;;;18.15;100.00;100831.04;1975856;72;24603;-72
2022/08/14 05:03:51;;;;;;;56.03;52.73;;;;;;;18.21;100.00;100828.30;1869595;74;24624;-71
2022/08/14 05:06:22;;;;;;;55.47;52.07;;;;;;;18.39;100.00;100817.80;1975764;72;26167;-72
2022/08/14 05:08:53;;;;;;;57.33;54.03;;;;;;;18.20;100.00;100821.84;1869567;76;24201;-71
2022/08/14 05:11:23;;;;;;;57.13;53.73;;;;;;;18.01;100.00;100817.80;1976138;72;24709;-72
2022/08/14 05:13:54;;;;;;;57.90;54.60;;;;;;;18.10;100.00;100827.00;1869368;76;24154;-73
2022/08/14 05:16:30;;;;;;;58.70;55.23;;;;;;;18.26;100.00;100818.27;1975158;72;24189;-72
2022/08/14 05:18:57;;;;;;;59.80;56.40;;;;;;;18.38;100.00;100811.34;1974565;72;24105;-72
2022/08/14 05:21:27;;;;;;;60.30;56.80;;;;;;;18.13;100.00;100815.10;1868747;76;24121;-72
2022/08/14 05:23:58;;;;;;;61.40;57.83;;;;;;;18.02;100.00;100817.44;1975097;72;24233;-72
2022/08/14 05:26:28;;;;;;;63.87;60.13;;;;;;;18.10;100.00;100820.80;1868990;76;24160;-69
2022/08/14 05:28:58;;;;;;;64.77;61.07;;;;;;;18.15;100.00;100818.38;1975332;72;24180;-69
2022/08/14 05:31:28;;;;;;;62.97;59.20;;;;;;;18.23;100.00;100818.92;1868843;76;24157;-70
2022/08/14 05:33:59;;;;;;;63.93;59.97;;;;;;;18.15;100.00;100820.63;1975160;72;24697;-71
2022/08/14 05:36:29;;;;;;;63.17;59.37;;;;;;;18.27;100.00;100820.51;1869053;76;24138;-72
2022/08/14 05:38:59;;;;;;;62.40;58.57;;;;;;;18.26;100.00;100821.09;1975187;72;26772;-71
2022/08/14 05:41:31;;;;;;;63.37;59.47;;;;;;;18.43;100.00;100823.81;1868677;76;26629;-71
2022/08/14 05:44:01;;;;;;;64.10;59.97;;;;;;;18.50;100.00;100821.87;1905158;75;24127;-71
2022/08/14 05:46:32;;;;;;;63.77;59.87;;;;;;;18.43;100.00;100824.39;1904970;75;24115;-72
2022/08/14 05:49:04;;;;;;;65.27;61.37;;;;;;;18.38;100.00;100818.95;1905037;75;24166;-71
2022/08/14 05:51:34;;;;;;;63.73;59.87;;;;;;;18.50;100.00;100819.88;1975492;72;24108;-70
2022/08/14 05:54:05;;;;;;;63.13;59.33;;;;;;;18.57;100.00;100816.55;1975292;73;24113;-71
2022/08/14 05:56:37;;;;;;;63.20;59.40;;;;;;;18.68;100.00;100822.05;1869110;76;24137;-72
2022/08/14 05:59:07;;;;;;;63.57;59.63;;;;;;;18.74;100.00;100826.91;1975120;73;24641;-71
2022/08/14 06:01:38;;;;;;;65.17;61.27;;;;;;;18.76;100.00;100822.58;1868961;76;24155;-71
2022/08/14 06:04:08;;;;;;;65.43;61.53;;;;;;;18.82;100.00;100812.78;1974966;72;24230;-72
2022/08/14 06:06:38;;;;;;;63.80;59.63;;;;;;;18.84;100.00;100814.66;1975295;73;24109;-71
2022/08/14 06:09:09;;;;;;;62.27;58.47;;;;;;;18.94;100.00;100819.06;1869163;76;24592;-72
2022/08/14 06:11:39;;;;;;;63.33;59.47;;;;;;;19.04;100.00;100817.23;1975094;73;24160;-71
2022/08/14 06:14:10;;;;;;;59.50;56.27;;;;;;;19.16;100.00;100817.33;1975374;72;24222;-71
2022/08/14 06:16:43;;;;;;;61.13;57.93;;;;;;;19.31;100.00;100812.46;1975291;73;24117;-71
2022/08/14 06:19:13;;;;;;;60.80;57.60;;;;;;;19.18;100.00;100816.37;1975450;73;26626;-72
2022/08/14 06:21:44;;;;;;;62.57;59.27;;;;;;;19.20;100.00;100811.83;1868903;76;24195;-71
2022/08/14 06:24:14;;;;;;;61.50;58.00;;;;;;;19.23;100.00;100819.58;1905057;75;24131;-72
2022/08/14 06:26:44;;;;;;;61.20;57.80;;;;;;;19.28;100.00;100812.33;1905079;75;24119;-72
2022/08/14 06:29:14;;;;;;;62.23;58.83;;;;;;;19.44;100.00;100812.79;1905345;75;24107;-73
2022/08/14 06:31:46;;;;;;;61.87;58.27;;;;;;;19.36;100.00;100814.24;1905035;75;24119;-73
2022/08/14 06:34:16;;;;;;;61.77;57.97;;;;;;;19.42;100.00;100816.52;1904967;75;26221;-72
2022/08/14 06:36:46;;;;;;;60.87;57.40;;;;;;;19.45;100.00;100813.03;1905337;74;26282;-72
2022/08/14 06:39:17;;;;;;;60.23;56.73;;;;;;;19.51;100.00;100815.06;1905284;75;24119;-72
2022/08/14 06:41:47;;;;;;;62.50;58.90;;;;;;;19.59;100.00;100816.14;1905157;75;26341;-72
2022/08/14 06:44:17;;;;;;;62.30;58.80;;;;;;;19.71;100.00;100819.83;1905065;75;24120;-72
2022/08/14 06:46:47;;;;;;;59.13;55.93;;;;;;;19.78;100.00;100817.25;1905263;75;24108;-72
2022/08/14 06:49:18;;;;;;;61.50;58.00;;;;;;;19.92;100.00;100816.36;1905026;75;24474;-72
2022/08/14 06:51:48;;;;;;;60.87;57.57;;;;;;;19.89;100.00;100817.06;1905008;75;24174;-72
2022/08/14 06:54:19;;;;;;;62.60;59.33;;;;;;;19.94;100.00;100812.59;1904948;75;24570;-73
2022/08/14 06:56:49;;;;;;;58.80;55.50;;;;;;;20.09;100.00;100811.69;1904919;75;24123;-72
2022/08/14 06:59:20;;;;;;;59.83;56.43;;;;;;;20.21;100.00;100807.46;1905029;75;26616;-72
2022/08/14 07:07:26;;;;;;;56.33;53.43;;;;;;;20.43;100.00;100809.86;1905284;75;26273;-71
2022/08/14 07:09:56;;;;;;;58.23;55.03;;;;;;;20.53;100.00;100801.52;1904945;75;26705;-71
2022/08/14 07:12:27;;;;;;;56.50;53.30;;;;;;;20.61;100.00;100791.52;1904957;75;26676;-71
2022/08/14 07:14:57;;;;;;;58.03;54.87;;;;;;;20.76;100.00;100797.02;1905204;75;24289;-71
2022/08/14 07:17:28;;;;;;;57.93;54.70;;;;;;;20.86;100.00;100790.30;1905211;74;24181;-71
2022/08/14 07:19:58;;;;;;;56.63;53.73;;;;;;;20.88;100.00;100796.98;1905846;75;24127;-71
2022/08/14 07:22:28;;;;;;;55.97;52.97;;;;;;;20.90;100.00;100790.41;1905008;75;24098;-71
2022/08/14 07:24:58;;;;;;;53.23;50.23;;;;;;;21.09;100.00;100788.38;1905149;74;26634;-71
2022/08/14 07:27:29;;;;;;;56.23;53.23;;;;;;;21.09;100.00;100790.61;1904970;75;24582;-71
2022/08/14 07:29:59;;;;;;;55.53;52.43;;;;;;;21.13;100.00;100785.09;1904950;75;24152;-71
2022/08/14 07:32:29;;;;;;;54.13;51.20;;;;;;;21.23;100.00;100781.75;1905031;75;24574;-70
2022/08/14 07:34:59;;;;;;;54.47;51.63;;;;;;;21.33;100.00;100782.66;1905103;75;24660;-71
2022/08/14 07:37:30;;;;;;;55.47;52.50;;;;;;;21.40;100.00;100782.86;1905291;75;24162;-71
2022/08/14 07:40:00;;;;;;;51.00;48.20;;;;;;;21.43;100.00;100777.09;1905253;75;24198;-70
2022/08/14 07:42:31;;;;;;;50.43;47.50;;;;;;;21.66;100.00;100771.90;1905547;75;24191;-71
2022/08/14 07:45:01;;;;;;;46.07;43.43;;;;;;;21.83;100.00;100775.56;1905103;75;24139;-71
2022/08/14 07:47:32;;;;;;;42.03;39.63;;;;;;;22.16;100.00;100769.02;1905147;75;24543;-71
2022/08/14 07:50:07;;;;;;;44.03;41.73;;;;;;;22.44;100.00;100771.14;1904983;75;24590;-71
2022/08/14 07:55:52;;;;;;;40.37;38.10;;;;;;;22.90;100.00;100758.67;2016728;71;31008;-70
2022/08/14 08:01:22;;;;;;;36.20;33.58;;;;;;;23.11;100.00;100752.88;2060146;69;28456;-71
2022/08/14 08:03:53;;;;;;;35.13;32.93;;;;;;;23.33;100.00;100761.23;1981863;72;24100;-71
2022/08/14 08:06:24;;;;;;;31.00;29.10;;;;;;;23.61;100.00;100748.27;1981687;72;24120;-71
2022/08/14 08:08:57;;;;;;;33.27;31.37;;;;;;;23.97;100.00;100748.31;1981663;72;24583;-72
2022/08/14 08:11:29;;;;;;;31.37;29.67;;;;;;;24.14;100.00;100746.97;1981611;72;24568;-71
2022/08/14 08:14:05;;;;;;;26.60;24.97;;;;;;;24.33;100.00;100739.24;1946677;74;24580;-71
2022/08/14 08:16:37;;;;;;;24.37;23.03;;;;;;;24.58;100.00;100733.13;1946933;73;24593;-71
2022/08/14 08:19:07;;;;;;;23.70;22.35;;;;;;;24.67;100.00;100735.91;1946603;74;24599;-71
2022/08/14 08:21:40;;;;;;;21.80;20.60;;;;;;;25.00;100.00;100728.67;1946546;74;24128;-71
2022/08/14 08:24:10;;;;;;;21.07;19.98;;;;;;;25.09;100.00;100730.02;1946595;74;24124;-71
2022/08/14 08:26:41;;;;;;;20.27;19.07;;;;;;;25.31;100.00;100719.13;1946589;74;24136;-71
2022/08/14 08:29:12;;;;;;;19.45;18.45;;;;;;;25.34;100.00;100715.50;1946708;74;24225;-71
2022/08/14 08:31:49;;;;;;;18.82;17.75;;;;;;;25.48;100.00;100716.88;1946421;73;24186;-71
2022/08/14 08:34:20;;;;;;;17.50;16.62;;;;;;;25.49;100.00;100709.98;1946577;74;24121;-72
2022/08/14 08:36:51;;;;;;;17.12;16.23;;;;;;;25.62;100.00;100697.16;1985486;72;24188;-71
2022/08/14 08:39:21;;;;;;;15.90;15.20;;;;;;;25.71;100.00;100697.66;1927403;74;24208;-71
2022/08/14 08:41:51;;;;;;;15.88;14.87;;;;;;;25.77;100.00;100694.65;1950010;73;24121;-71
2022/08/14 08:44:23;;;;;;;15.03;14.07;;;;;;;25.86;100.00;100686.61;1949904;73;24132;-71
2022/08/14 08:47:03;;;;;;;14.38;13.70;;;;;;;25.90;100.00;100690.91;1949505;73;24218;-71
2022/08/14 08:49:51;;;;;;;13.70;13.00;;;;;;;26.22;100.00;100682.89;1906817;75;24700;-70
2022/08/14 08:52:22;;;;;;;13.53;12.85;;;;;;;26.19;100.00;100691.34;1906767;75;24142;-71
2022/08/14 08:54:55;;;;;;;13.40;12.70;;;;;;;26.27;100.00;100686.77;1906755;75;24117;-71
2022/08/14 08:57:25;;;;;;;12.60;11.95;;;;;;;26.32;100.00;100690.45;1906777;75;24618;-70
2022/08/14 08:59:56;;;;;;;13.28;12.40;;;;;;;26.42;100.00;100683.42;1906689;75;24142;-70
2022/08/14 09:02:29;;;;;;;12.63;12.03;;;;;;;26.41;100.00;100687.48;1906822;75;24189;-70
2022/08/14 09:05:04;;;;;;;12.93;12.00;;;;;;;26.15;100.00;100692.75;1906647;75;24191;-71
2022/08/14 09:07:34;;;;;;;13.58;12.80;;;;;;;26.63;100.00;100693.53;1906763;75;24138;-70
2022/08/14 09:10:05;;;;;;;12.90;12.20;;;;;;;26.36;100.00;100696.39;1906774;75;24121;-71
2022/08/14 09:12:35;;;;;;;12.80;12.20;;;;;;;26.59;100.00;100695.54;1906195;75;24123;-70
2022/08/14 09:18:06;;;;;;;12.73;12.03;;;;;;;26.53;100.00;100687.75;2022638;71;26495;-71
2022/08/14 09:23:38;;;;;;;13.98;13.28;;;;;;;26.65;100.00;100684.59;2060217;69;25987;-71
2022/08/14 09:26:08;;;;;;;14.10;13.30;;;;;;;26.63;100.00;100691.28;1981901;72;24636;-71
2022/08/14 09:28:38;;;;;;;13.80;13.18;;;;;;;26.77;100.00;100687.09;1981866;72;24202;-71
2022/08/14 09:31:10;;;;;;;13.30;12.70;;;;;;;26.90;100.00;100686.17;1981632;72;24105;-71
2022/08/14 09:33:51;;;;;;;13.40;12.70;;;;;;;26.90;100.00;100686.17;1981765;72;24234;-71
2022/08/14 09:36:37;;;;;;;12.68;12.10;;;;;;;26.67;100.00;100680.72;1981317;72;24214;-71
2022/08/14 09:39:12;;;;;;;12.73;12.10;;;;;;;26.25;100.00;100682.09;1981564;72;24108;-72
2022/08/14 09:41:50;;;;;;;12.37;11.63;;;;;;;26.34;100.00;100683.77;1980489;72;24117;-71
2022/08/14 09:44:30;;;;;;;11.63;11.03;;;;;;;26.59;100.00;100677.63;1981541;72;24686;-71
2022/08/14 09:47:01;;;;;;;11.00;10.50;;;;;;;26.34;100.00;100680.92;1981868;72;24158;-71
2022/08/14 09:49:36;;;;;;;11.60;11.00;;;;;;;26.75;100.00;100676.69;1979877;72;24637;-71
2022/08/14 09:52:09;;;;;;;11.73;11.20;;;;;;;26.33;100.00;100670.13;1979789;72;24103;-71
2022/08/14 09:54:42;;;;;;;11.53;10.93;;;;;;;26.48;100.00;100669.03;1979730;72;24111;-71
2022/08/14 09:57:15;;;;;;;12.23;11.68;;;;;;;26.44;100.00;100665.34;1979627;72;24107;-71
2022/08/14 09:59:48;;;;;;;11.55;10.95;;;;;;;26.42;100.00;100662.05;1977784;72;24092;-71
2022/08/14 10:02:24;;;;;;;11.30;10.90;;;;;;;26.31;100.00;100659.76;1979715;72;24119;-71
2022/08/14 10:08:06;;;;;;;11.20;10.60;;;;;;;26.17;100.00;100651.90;2060168;69;26754;-70
2022/08/14 10:10:40;;;;;;;11.97;11.38;;;;;;;26.06;100.00;100643.87;2025584;70;24171;-71
2022/08/14 10:16:20;;;;;;;11.45;10.85;;;;;;;26.40;100.00;100638.05;2060104;69;25949;-72
2022/08/14 10:18:52;;;;;;;12.00;11.50;;;;;;;26.41;100.00;100640.48;1981894;72;24109;-71
2022/08/14 10:21:22;;;;;;;11.65;11.05;;;;;;;26.33;100.00;100635.95;1979886;72;24136;-71
2022/08/14 10:23:52;;;;;;;11.28;10.68;;;;;;;26.12;100.00;100632.33;1981780;72;24219;-72
2022/08/14 10:26:23;;;;;;;11.63;10.88;;;;;;;26.16;100.00;100634.59;1981676;72;24093;-72
2022/08/14 10:28:56;;;;;;;11.28;10.68;;;;;;;26.08;100.00;100631.49;1981641;72;25201;-71
2022/08/14 10:31:30;;;;;;;12.00;11.50;;;;;;;26.11;100.00;100629.87;1980377;72;25201;-72
2022/08/14 10:34:04;;;;;;;12.88;12.13;;;;;;;26.46;100.00;100628.71;1981661;72;24627;-72
2022/08/14 10:36:36;;;;;;;11.43;10.93;;;;;;;26.21;100.00;100627.75;1981802;72;24222;-70
2022/08/14 10:39:09;;;;;;;11.05;10.53;;;;;;;26.07;100.00;100627.00;1981684;72;24576;-70
2022/08/14 10:41:41;;;;;;;11.93;11.43;;;;;;;26.06;100.00;100623.94;1980781;72;24110;-71
2022/08/14 10:44:15;;;;;;;12.30;11.80;;;;;;;26.12;100.00;100629.48;1981801;72;25203;-71
2022/08/14 10:46:48;;;;;;;11.83;11.22;;;;;;;26.20;100.00;100622.66;1981670;72;24078;-71
2022/08/14 10:49:22;;;;;;;12.47;11.95;;;;;;;26.15;100.00;100617.30;1980214;72;25286;-71
2022/08/14 10:55:12;;;;;;;12.03;11.45;;;;;;;26.39;100.00;100610.77;2060009;69;25718;-71
2022/08/14 10:57:50;;;;;;;11.65;11.15;;;;;;;26.17;100.00;100610.61;2025741;70;24142;-70
2022/08/14 11:00:25;;;;;;;11.68;11.08;;;;;;;26.15;100.00;100605.91;1945041;73;24531;-70
2022/08/14 11:03:01;;;;;;;12.30;11.80;;;;;;;26.14;100.00;100601.41;1985416;72;25202;-71
2022/08/14 11:05:42;;;;;;;12.07;11.43;;;;;;;26.23;100.00;100596.83;1981794;72;24212;-71
2022/08/14 11:08:14;;;;;;;12.30;11.80;;;;;;;26.20;100.00;100603.33;1981873;72;24100;-71
2022/08/14 11:10:48;;;;;;;12.35;11.75;;;;;;;26.40;100.00;100594.69;1981820;72;25646;-71
2022/08/14 11:13:20;;;;;;;12.68;12.07;;;;;;;26.33;100.00;100591.81;1981739;72;24454;-72
2022/08/14 11:15:51;;;;;;;12.82;12.23;;;;;;;26.25;100.00;100582.42;1981753;72;24549;-71
2022/08/14 11:18:22;;;;;;;12.30;11.80;;;;;;;26.33;100.00;100587.54;1981816;72;25196;-71
2022/08/14 11:20:54;;;;;;;12.53;11.93;;;;;;;26.26;100.00;100586.09;1981728;72;24645;-71
2022/08/14 11:23:27;;;;;;;12.88;12.28;;;;;;;26.26;100.00;100578.36;1981593;72;25148;-71
2022/08/14 11:26:00;;;;;;;12.43;11.90;;;;;;;26.46;100.00;100572.34;1981744;72;24109;-70
2022/08/14 11:28:32;;;;;;;12.70;12.00;;;;;;;26.66;100.00;100573.04;1981721;72;24097;-71
2022/08/14 11:31:05;;;;;;;12.47;11.95;;;;;;;26.66;100.00;100566.52;1981770;72;26659;-71
2022/08/14 11:33:37;;;;;;;12.47;11.97;;;;;;;26.62;100.00;100565.09;1981602;72;25164;-71
2022/08/14 11:36:10;;;;;;;12.35;11.75;;;;;;;26.46;100.00;100567.47;1981618;72;25127;-71
2022/08/14 11:38:43;;;;;;;12.03;11.53;;;;;;;26.60;100.00;100564.69;1946861;74;24179;-71
2022/08/14 11:41:15;;;;;;;12.85;12.35;;;;;;;26.70;100.00;100556.77;1946644;74;24132;-71
2022/08/14 11:43:49;;;;;;;12.03;11.53;;;;;;;26.83;100.00;100556.43;1946617;74;25696;-71
2022/08/14 11:46:22;;;;;;;11.83;11.33;;;;;;;26.79;100.00;100556.39;1946701;74;25151;-71
2022/08/14 11:48:54;;;;;;;12.18;11.57;;;;;;;26.62;100.00;100557.14;1945551;74;24159;-71
2022/08/14 11:51:27;;;;;;;12.00;11.40;;;;;;;26.60;100.00;100553.90;1944979;74;24125;-71
2022/08/14 11:54:00;;;;;;;12.07;11.48;;;;;;;26.51;100.00;100555.70;1944998;72;24160;-71
2022/08/14 11:56:38;;;;;;;12.07;11.50;;;;;;;26.60;100.00;100551.05;1944926;74;25160;-70
2022/08/14 11:59:11;;;;;;;11.93;11.43;;;;;;;26.61;100.00;100544.92;1945088;73;25136;-71
2022/08/14 12:01:41;;;;;;;13.60;13.00;;;;;;;26.51;100.00;100549.17;1944836;74;25288;-71
2022/08/14 12:04:16;;;;;;;12.00;11.40;;;;;;;26.51;100.00;100544.91;1944855;73;24588;-71
2022/08/14 12:06:51;;;;;;;13.93;13.15;;;;;;;27.08;100.00;100539.59;1944398;74;24222;-71
2022/08/14 12:09:32;;;;;;;13.08;12.58;;;;;;;27.65;100.00;100544.54;1944410;73;24169;-71
2022/08/14 12:12:03;;;;;;;11.85;11.25;;;;;;;28.08;100.00;100543.25;1944352;73;24563;-72
2022/08/14 12:14:34;;;;;;;12.10;11.50;;;;;;;27.70;100.00;100535.57;1942240;74;25600;-71
2022/08/14 12:17:07;;;;;;;12.10;11.40;;;;;;;27.15;100.00;100531.06;1944219;74;24111;-71
2022/08/14 12:19:49;;;;;;;12.10;11.50;;;;;;;26.93;100.00;100532.24;1982959;72;24203;-72